createdAt,value
2023-09-11T00:01:36.309Z,21.80
2023-09-11T00:04:02.887Z,19.27
2023-09-11T00:06:29.359Z,14.03
2023-09-11T00:08:55.709Z,19.20
2023-09-11T00:11:22.228Z,14.80
2023-09-11T00:13:48.675Z,15.47
2023-09-11T00:16:15.004Z,18.23
2023-09-11T00:18:41.867Z,16.70
2023-09-11T00:21:08.695Z,18.57
2023-09-11T00:23:35.117Z,17.60
2023-09-11T00:26:01.518Z,16.70
2023-09-11T00:28:27.992Z,19.40
2023-09-11T00:30:58.894Z,17.30
2023-09-11T00:33:25.377Z,17.70
2023-09-11T00:35:51.810Z,16.70
2023-09-11T00:38:18.288Z,17.03
2023-09-11T00:40:44.680Z,16.23
2023-09-11T00:43:11.029Z,16.03
2023-09-11T00:45:37.720Z,21.30
2023-09-11T00:48:05.936Z,19.90
2023-09-11T00:50:32.934Z,17.67
2023-09-11T00:52:59.547Z,17.30
2023-09-11T00:55:26.827Z,17.73
2023-09-11T00:57:53.183Z,22.93
2023-09-11T01:00:19.690Z,16.00
2023-09-11T01:02:46.399Z,20.10
2023-09-11T01:05:13.108Z,14.63
2023-09-11T01:07:40.052Z,17.43
2023-09-11T01:10:07.514Z,18.93
2023-09-11T01:12:37.171Z,15.43
2023-09-11T01:15:05.377Z,17.10
2023-09-11T01:17:55.926Z,18.70
2023-09-11T01:20:37.818Z,16.43
2023-09-11T01:23:04.221Z,18.13
2023-09-11T01:25:46.180Z,18.13
2023-09-11T01:28:21.168Z,14.57
2023-09-11T01:30:47.799Z,14.00
2023-09-11T01:33:14.606Z,14.63
2023-09-11T01:35:41.182Z,15.93
2023-09-11T01:38:09.016Z,14.17
2023-09-11T01:40:36.013Z,15.30
2023-09-11T01:43:03.621Z,20.10
2023-09-11T01:45:31.344Z,14.57
2023-09-11T01:47:59.254Z,16.77
2023-09-11T01:50:26.579Z,19.20
2023-09-11T01:52:53.312Z,17.67
2023-09-11T01:55:19.670Z,16.30
2023-09-11T01:57:46.170Z,15.20
2023-09-11T02:00:13.233Z,15.50
2023-09-11T02:02:42.139Z,15.93
2023-09-11T02:05:09.619Z,17.10
2023-09-11T02:07:36.229Z,19.83
2023-09-11T02:10:03.389Z,16.60
2023-09-11T02:12:30.032Z,18.47
2023-09-11T02:14:56.978Z,16.97
2023-09-11T02:17:23.636Z,18.00
2023-09-11T02:19:50.039Z,17.77
2023-09-11T02:22:17.317Z,17.47
2023-09-11T02:24:43.709Z,16.57
2023-09-11T02:27:09.975Z,15.80
2023-09-11T02:29:36.352Z,16.47
2023-09-11T02:32:04.629Z,15.23
2023-09-11T02:34:31.313Z,18.17
2023-09-11T02:36:57.805Z,17.30
2023-09-11T02:39:24.151Z,17.53
2023-09-11T02:41:50.566Z,15.63
2023-09-11T02:44:16.988Z,15.50
2023-09-11T02:46:44.602Z,17.57
2023-09-11T02:49:11.315Z,17.20
2023-09-11T02:51:37.740Z,19.97
2023-09-11T02:54:04.258Z,20.43
2023-09-11T02:56:30.925Z,16.70
2023-09-11T02:58:57.320Z,16.60
2023-09-11T03:01:23.941Z,17.90
2023-09-11T03:03:50.483Z,16.73
2023-09-11T03:06:16.978Z,26.27
2023-09-11T03:08:44.008Z,17.43
2023-09-11T03:11:11.205Z,16.00
2023-09-11T03:13:40.060Z,15.77
2023-09-11T03:16:14.569Z,16.00
2023-09-11T03:18:45.598Z,16.40
2023-09-11T03:21:13.486Z,15.60
2023-09-11T03:23:40.055Z,17.30
2023-09-11T03:26:14.040Z,17.47
2023-09-11T03:28:43.302Z,16.30
2023-09-11T03:31:10.270Z,21.40
2023-09-11T03:33:36.755Z,17.83
2023-09-11T03:36:03.573Z,17.80
2023-09-11T03:38:29.917Z,18.40
2023-09-11T03:40:57.288Z,17.23
2023-09-11T03:43:24.012Z,23.83
2023-09-11T03:45:52.725Z,17.07
2023-09-11T03:48:19.607Z,18.50
2023-09-11T03:50:46.090Z,18.70
2023-09-11T03:53:12.681Z,24.70
2023-09-11T03:55:39.118Z,20.77
2023-09-11T03:58:05.458Z,16.70
2023-09-11T04:00:32.080Z,19.50
2023-09-11T04:02:58.562Z,16.70
2023-09-11T04:05:24.958Z,16.77
2023-09-11T04:07:51.561Z,17.30
2023-09-11T04:10:18.086Z,19.77
2023-09-11T04:12:44.434Z,20.67
2023-09-11T04:15:10.894Z,16.60
2023-09-11T04:17:37.420Z,25.73
2023-09-11T04:20:04.755Z,16.37
2023-09-11T04:22:31.217Z,17.67
2023-09-11T04:24:57.683Z,17.63
2023-09-11T04:27:24.070Z,19.33
2023-09-11T04:29:50.693Z,16.53
2023-09-11T04:32:19.297Z,20.43
2023-09-11T04:34:45.841Z,18.80
2023-09-11T04:37:12.789Z,20.30
2023-09-11T04:39:39.721Z,20.93
2023-09-11T04:42:06.174Z,17.57
2023-09-11T04:44:32.812Z,23.43
2023-09-11T04:46:59.613Z,17.80
2023-09-11T04:49:26.131Z,17.23
2023-09-11T04:51:53.275Z,19.93
2023-09-11T04:54:19.484Z,16.90
2023-09-11T04:56:45.770Z,18.30
2023-09-11T04:59:12.259Z,20.93
2023-09-11T05:01:38.636Z,25.80
2023-09-11T05:04:05.247Z,22.20
2023-09-11T05:06:31.878Z,18.00
2023-09-11T05:11:28.613Z,20.53
2023-09-11T05:13:55.681Z,18.63
2023-09-11T05:16:22.213Z,15.07
2023-09-11T05:18:49.332Z,17.63
2023-09-11T05:21:15.797Z,13.93
2023-09-11T05:23:44.176Z,15.10
2023-09-11T05:26:11.531Z,13.87
2023-09-11T05:28:38.699Z,15.20
2023-09-11T05:31:06.613Z,16.23
2023-09-11T05:33:32.997Z,16.87
2023-09-11T05:35:59.437Z,18.70
2023-09-11T05:38:25.706Z,16.70
2023-09-11T05:40:51.953Z,16.17
2023-09-11T05:43:18.263Z,20.33
2023-09-11T05:45:44.708Z,19.13
2023-09-11T05:48:13.320Z,15.03
2023-09-11T05:50:39.968Z,17.23
2023-09-11T05:53:08.209Z,20.53
2023-09-11T05:55:35.046Z,18.63
2023-09-11T05:58:01.597Z,16.07
2023-09-11T06:00:28.224Z,16.37
2023-09-11T06:02:54.751Z,15.40
2023-09-11T06:05:21.256Z,27.93
2023-09-11T06:07:47.725Z,18.30
2023-09-11T06:10:15.135Z,19.77
2023-09-11T06:12:41.626Z,15.70
2023-09-11T06:15:08.262Z,16.60
2023-09-11T06:17:44.396Z,18.97
2023-09-11T06:20:12.325Z,17.03
2023-09-11T06:22:38.891Z,17.23
2023-09-11T06:25:05.954Z,16.47
2023-09-11T06:27:32.576Z,16.83
2023-09-11T06:29:59.020Z,17.73
2023-09-11T06:32:25.580Z,16.73
2023-09-11T06:34:52.070Z,16.23
2023-09-11T06:37:18.489Z,17.50
2023-09-11T06:39:45.099Z,11.40
2023-09-11T06:42:19.260Z,15.20
2023-09-11T06:44:46.843Z,13.97
2023-09-11T06:47:13.727Z,18.50
2023-09-11T06:49:40.188Z,12.73
2023-09-11T06:52:06.584Z,14.60
2023-09-11T06:54:32.920Z,15.13
2023-09-11T06:56:59.276Z,23.27
2023-09-11T06:59:25.778Z,14.50
2023-09-11T07:01:52.131Z,14.47
2023-09-11T07:04:18.720Z,15.60
2023-09-11T07:06:45.463Z,19.87
2023-09-11T07:09:11.846Z,17.30
2023-09-11T07:11:38.407Z,12.13
2023-09-11T07:14:06.712Z,12.97
2023-09-11T07:16:33.483Z,24.40
2023-09-11T07:19:00.475Z,17.40
2023-09-11T07:21:27.108Z,11.20
2023-09-11T07:23:53.544Z,13.83
2023-09-11T07:26:19.925Z,11.27
2023-09-11T07:28:56.497Z,13.47
2023-09-11T07:31:23.106Z,13.23
2023-09-11T07:33:49.619Z,15.87
2023-09-11T07:36:17.426Z,21.53
2023-09-11T07:38:46.007Z,9.53
2023-09-11T07:41:17.265Z,14.30
2023-09-11T07:43:47.273Z,14.60
2023-09-11T07:46:13.805Z,14.37
2023-09-11T07:48:40.529Z,15.83
2023-09-11T07:51:07.503Z,20.00
2023-09-11T07:53:34.117Z,15.23
2023-09-11T07:56:05.149Z,11.37
2023-09-11T07:58:31.902Z,12.87
2023-09-11T08:00:58.220Z,13.43
2023-09-11T08:03:24.682Z,17.47
2023-09-11T08:05:51.331Z,12.83
2023-09-11T08:08:17.659Z,13.43
2023-09-11T08:10:44.061Z,13.70
2023-09-11T08:13:10.442Z,9.57
2023-09-11T08:15:37.019Z,10.97
2023-09-11T08:18:03.514Z,8.20
2023-09-11T08:20:30.025Z,10.67
2023-09-11T08:22:56.428Z,9.20
2023-09-11T08:25:22.746Z,11.20
2023-09-11T08:27:49.648Z,10.00
2023-09-11T08:30:16.088Z,10.03
2023-09-11T08:32:42.495Z,12.40
2023-09-11T08:35:09.266Z,8.40
2023-09-11T08:37:35.681Z,10.33
2023-09-11T08:40:02.074Z,8.20
2023-09-11T08:42:28.522Z,9.07
2023-09-11T08:44:55.063Z,8.07
2023-09-11T08:47:22.227Z,9.83
2023-09-11T08:49:52.265Z,7.83
2023-09-11T08:52:19.095Z,11.67
2023-09-11T08:54:49.371Z,15.90
2023-09-11T08:57:16.639Z,9.20
2023-09-11T08:59:48.182Z,10.47
2023-09-11T09:02:15.172Z,9.47
2023-09-11T09:04:42.197Z,10.77
2023-09-11T09:07:09.704Z,8.50
2023-09-11T09:09:37.053Z,13.10
2023-09-11T09:12:05.942Z,6.97
2023-09-11T09:14:34.428Z,7.73
2023-09-11T09:17:01.845Z,14.33
2023-09-11T09:19:29.199Z,9.40
2023-09-11T09:22:08.043Z,8.20
2023-09-11T09:24:35.480Z,9.23
2023-09-11T09:27:03.136Z,6.30
2023-09-11T09:29:37.182Z,7.73
2023-09-11T09:32:05.052Z,6.40
2023-09-11T09:34:35.034Z,6.70
2023-09-11T09:37:01.751Z,5.87
2023-09-11T09:39:29.821Z,6.87
2023-09-11T09:42:00.724Z,9.00
2023-09-11T09:44:33.228Z,6.27
2023-09-11T09:47:06.822Z,9.27
2023-09-11T09:49:45.517Z,7.13
2023-09-11T09:52:12.960Z,6.13
2023-09-11T09:54:48.961Z,8.60
2023-09-11T09:57:16.026Z,10.20
2023-09-11T09:59:43.134Z,8.73
2023-09-11T10:02:12.196Z,8.17
2023-09-11T10:04:39.584Z,7.27
2023-09-11T10:07:07.093Z,7.80
2023-09-11T10:09:35.246Z,9.90
2023-09-11T10:12:02.713Z,9.00
2023-09-11T10:14:29.079Z,10.33
2023-09-11T10:16:55.449Z,6.93
2023-09-11T10:19:22.751Z,6.80
2023-09-11T10:21:49.137Z,9.87
2023-09-11T10:24:15.731Z,11.87
2023-09-11T10:26:46.845Z,7.87
2023-09-11T10:29:19.399Z,12.23
2023-09-11T10:31:58.198Z,11.90
2023-09-11T10:34:26.581Z,9.53
2023-09-11T10:36:56.527Z,11.67
2023-09-11T10:39:23.383Z,6.70
2023-09-11T10:41:50.385Z,9.70
2023-09-11T10:44:18.051Z,6.80
2023-09-11T10:46:51.641Z,10.33
2023-09-11T10:49:22.252Z,12.00
2023-09-11T10:51:49.418Z,8.93
2023-09-11T10:54:16.893Z,6.30
2023-09-11T10:56:43.969Z,6.23
2023-09-11T10:59:11.157Z,19.80
2023-09-11T11:01:37.900Z,14.33
2023-09-11T11:04:05.042Z,6.37
2023-09-11T11:06:32.554Z,9.60
2023-09-11T11:08:59.137Z,6.63
2023-09-11T11:11:31.563Z,16.03
2023-09-11T11:14:16.175Z,8.60
2023-09-11T11:16:55.972Z,15.90
2023-09-11T11:19:29.848Z,16.47
2023-09-11T11:21:57.352Z,14.60
2023-09-11T11:24:25.787Z,24.03
2023-09-11T11:26:56.234Z,22.30
2023-09-11T11:29:23.049Z,7.63
2023-09-11T11:31:51.936Z,8.67
2023-09-11T11:34:20.064Z,12.60
2023-09-11T11:36:46.889Z,8.40
2023-09-11T11:39:15.359Z,6.90
2023-09-11T11:41:42.069Z,11.03
2023-09-11T11:44:08.616Z,15.40
2023-09-11T11:46:35.052Z,11.33
2023-09-11T11:49:01.395Z,12.60
2023-09-11T11:51:31.500Z,8.57
2023-09-11T11:54:01.256Z,13.40
2023-09-11T11:56:31.397Z,8.73
2023-09-11T11:59:01.638Z,10.83
2023-09-11T12:01:37.463Z,8.37
2023-09-11T12:04:06.921Z,10.90
2023-09-11T12:06:37.322Z,7.90
2023-09-11T12:09:07.304Z,7.70
2023-09-11T12:11:38.465Z,12.30
2023-09-11T12:14:04.888Z,10.40
2023-09-11T12:16:32.729Z,7.53
2023-09-11T12:18:59.183Z,8.30
2023-09-11T12:21:25.722Z,7.23
2023-09-11T12:23:53.932Z,8.57
2023-09-11T12:26:21.770Z,7.97
2023-09-11T12:28:49.092Z,5.83
2023-09-11T12:31:16.146Z,8.60
2023-09-11T12:33:42.883Z,11.03
2023-09-11T12:36:09.571Z,11.03
2023-09-11T12:38:36.588Z,7.10
2023-09-11T12:41:03.487Z,16.17
2023-09-11T12:43:31.397Z,9.33
2023-09-11T12:45:58.571Z,11.03
2023-09-11T12:48:26.007Z,10.20
2023-09-11T12:50:52.480Z,10.97
2023-09-11T12:53:18.826Z,9.67
2023-09-11T12:55:47.941Z,17.63
2023-09-11T12:58:14.282Z,11.70
2023-09-11T13:00:44.534Z,9.07
2023-09-11T13:03:11.647Z,8.67
2023-09-11T13:05:39.601Z,9.47
2023-09-11T13:08:13.563Z,5.87
2023-09-11T13:10:46.672Z,10.47
2023-09-11T13:13:24.988Z,8.13
2023-09-11T13:15:59.925Z,8.47
2023-09-11T13:18:26.356Z,7.80
2023-09-11T13:20:53.304Z,6.10
2023-09-11T13:23:19.654Z,10.90
2023-09-11T13:25:46.164Z,6.50
2023-09-11T13:28:13.356Z,10.40
2023-09-11T13:30:39.671Z,11.10
2023-09-11T13:33:06.158Z,7.60
2023-09-11T13:35:32.501Z,8.83
2023-09-11T13:37:58.942Z,10.77
2023-09-11T13:40:25.411Z,7.50
2023-09-11T13:42:51.804Z,8.27
2023-09-11T13:45:18.543Z,5.33
2023-09-11T13:47:46.125Z,10.93
2023-09-11T13:50:12.888Z,7.30
2023-09-11T13:52:39.338Z,9.13
2023-09-11T13:55:05.982Z,9.73
2023-09-11T13:57:32.421Z,7.50
2023-09-11T13:59:59.413Z,9.10
2023-09-11T14:02:25.870Z,9.77
2023-09-11T14:04:52.342Z,8.00
2023-09-11T14:07:22.394Z,7.47
2023-09-11T14:09:48.853Z,8.90
2023-09-11T14:12:15.256Z,4.47
2023-09-11T14:14:42.475Z,7.20
2023-09-11T14:17:09.067Z,9.37
2023-09-11T14:19:35.922Z,7.07
2023-09-11T14:22:02.612Z,8.93
2023-09-11T14:24:29.230Z,7.77
2023-09-11T14:26:55.629Z,14.53
2023-09-11T14:29:21.960Z,9.40
2023-09-11T14:31:48.457Z,12.40
2023-09-11T14:34:16.842Z,9.57
2023-09-11T14:36:43.403Z,11.63
2023-09-11T14:39:09.956Z,6.97
2023-09-11T14:41:36.468Z,12.20
2023-09-11T14:44:02.938Z,10.73
2023-09-11T14:46:30.121Z,7.73
2023-09-11T14:48:57.117Z,8.60
2023-09-11T14:51:23.850Z,10.17
2023-09-11T14:53:51.022Z,11.97
2023-09-11T14:56:18.530Z,10.50
2023-09-11T14:58:44.972Z,13.30
2023-09-11T15:01:11.450Z,7.40
2023-09-11T15:03:38.304Z,6.10
2023-09-11T15:06:04.801Z,7.90
2023-09-11T15:08:31.885Z,11.53
2023-09-11T15:11:01.765Z,5.93
2023-09-11T15:13:29.148Z,7.13
2023-09-11T15:15:56.249Z,12.27
2023-09-11T15:18:23.062Z,8.47
2023-09-11T15:20:50.024Z,5.83
2023-09-11T15:23:19.846Z,8.03
2023-09-11T15:25:46.614Z,10.03
2023-09-11T15:28:13.596Z,17.43
2023-09-11T15:30:40.288Z,8.30
2023-09-11T15:33:07.793Z,9.07
2023-09-11T15:35:34.417Z,6.33
2023-09-11T15:38:01.685Z,7.33
2023-09-11T15:40:30.408Z,11.27
2023-09-11T15:42:57.004Z,10.43
2023-09-11T15:45:23.218Z,9.90
2023-09-11T15:47:49.296Z,6.33
2023-09-11T15:50:19.275Z,7.50
2023-09-11T15:52:46.923Z,8.10
2023-09-11T15:55:13.344Z,5.27
2023-09-11T15:57:40.902Z,8.00
2023-09-11T16:00:07.558Z,8.37
2023-09-11T16:02:34.054Z,6.47
2023-09-11T16:05:00.414Z,19.90
2023-09-11T16:07:26.862Z,9.43
2023-09-11T16:09:53.419Z,8.43
2023-09-11T16:12:20.062Z,7.00
2023-09-11T16:14:46.464Z,8.50
2023-09-11T16:17:12.937Z,11.80
2023-09-11T16:19:39.250Z,8.77
2023-09-11T16:22:06.039Z,7.63
2023-09-11T16:24:32.185Z,7.53
2023-09-11T16:26:59.064Z,7.43
2023-09-11T16:29:25.591Z,8.40
2023-09-11T16:31:52.094Z,10.70
2023-09-11T16:34:18.770Z,9.40
2023-09-11T16:36:45.430Z,8.40
2023-09-11T16:39:12.068Z,13.60
2023-09-11T16:41:38.627Z,13.57
2023-09-11T16:44:05.240Z,9.10
2023-09-11T16:46:35.532Z,8.13
2023-09-11T16:49:03.511Z,18.60
2023-09-11T16:51:33.564Z,10.70
2023-09-11T16:54:01.104Z,12.60
2023-09-11T16:56:27.576Z,8.00
2023-09-11T16:58:54.877Z,9.30
2023-09-11T17:01:21.293Z,7.50
2023-09-11T17:03:47.991Z,12.00
2023-09-11T17:06:16.103Z,15.33
2023-09-11T17:08:42.842Z,8.80
2023-09-11T17:11:10.313Z,8.77
2023-09-11T17:13:37.810Z,10.30
2023-09-11T17:16:04.757Z,10.63
2023-09-11T17:18:31.783Z,10.90
2023-09-11T17:20:58.301Z,19.53
2023-09-11T17:23:24.873Z,8.13
2023-09-11T17:25:51.318Z,11.80
2023-09-11T17:28:18.273Z,18.90
2023-09-11T17:30:45.007Z,11.00
2023-09-11T17:33:11.639Z,14.80
2023-09-11T17:35:39.481Z,8.60
2023-09-11T17:38:06.517Z,16.80
2023-09-11T17:40:36.627Z,12.13
2023-09-11T17:43:05.584Z,10.23
2023-09-11T17:45:32.038Z,15.30
2023-09-11T17:47:58.982Z,15.97
2023-09-11T17:50:25.872Z,15.67
2023-09-11T17:52:52.541Z,12.27
2023-09-11T17:55:21.424Z,16.43
2023-09-11T17:57:47.997Z,10.43
2023-09-11T18:00:14.843Z,16.63
2023-09-11T18:02:41.861Z,12.40
2023-09-11T18:05:08.678Z,14.23
2023-09-11T18:07:36.727Z,11.80
2023-09-11T18:10:05.618Z,11.23
2023-09-11T18:12:33.951Z,15.60
2023-09-11T18:15:00.961Z,12.43
2023-09-11T18:17:28.520Z,18.93
2023-09-11T18:19:56.032Z,17.87
2023-09-11T18:22:22.494Z,12.40
2023-09-11T18:24:48.918Z,18.60
2023-09-11T18:27:15.448Z,15.23
2023-09-11T18:29:42.053Z,15.73
2023-09-11T18:32:08.503Z,15.10
2023-09-11T18:34:36.692Z,17.43
2023-09-11T18:37:03.380Z,14.53
2023-09-11T18:39:31.138Z,21.53
2023-09-11T18:41:59.850Z,27.10
2023-09-11T18:44:27.594Z,18.83
2023-09-11T18:46:54.502Z,23.73
2023-09-11T18:49:22.609Z,29.10
2023-09-11T18:51:52.843Z,28.67
2023-09-11T18:54:22.122Z,25.33
2023-09-11T18:56:48.863Z,17.83
2023-09-11T18:59:15.514Z,22.43
2023-09-11T19:01:42.225Z,21.73
2023-09-11T19:04:10.063Z,17.93
2023-09-11T19:06:36.674Z,22.37
2023-09-11T19:09:07.278Z,30.27
2023-09-11T19:11:33.867Z,21.93
2023-09-11T19:14:00.452Z,25.57
2023-09-11T19:16:27.532Z,23.10
2023-09-11T19:18:54.373Z,22.40
2023-09-11T19:21:22.609Z,23.57
2023-09-11T19:23:50.754Z,26.13
2023-09-11T19:26:17.559Z,22.00
2023-09-11T19:28:44.284Z,22.77
2023-09-11T19:31:11.433Z,17.23
2023-09-11T19:33:38.124Z,22.83
2023-09-11T19:36:05.105Z,22.20
2023-09-11T19:38:31.984Z,23.40
2023-09-11T19:40:58.764Z,23.07
2023-09-11T19:43:25.908Z,24.07
2023-09-11T19:45:52.730Z,17.57
2023-09-11T19:48:20.072Z,23.47
2023-09-11T19:50:46.738Z,24.93
2023-09-11T19:53:15.171Z,18.70
2023-09-11T19:55:42.103Z,20.77
2023-09-11T19:58:08.880Z,20.77
2023-09-11T20:00:35.845Z,20.53
2023-09-11T20:03:02.775Z,22.23
2023-09-11T20:05:30.118Z,18.97
2023-09-11T20:07:56.927Z,22.73
2023-09-11T20:10:24.711Z,16.00
2023-09-11T20:12:51.336Z,20.13
2023-09-11T20:15:18.906Z,19.87
2023-09-11T20:17:46.715Z,20.50
2023-09-11T20:20:13.698Z,17.20
2023-09-11T20:22:40.241Z,21.80
2023-09-11T20:25:06.920Z,21.17
2023-09-11T20:27:33.869Z,23.87
2023-09-11T20:30:01.666Z,19.53
2023-09-11T20:32:28.464Z,26.37
2023-09-11T20:34:58.070Z,28.97
2023-09-11T20:37:24.663Z,27.33
2023-09-11T20:39:51.187Z,23.57
2023-09-11T20:42:18.519Z,15.60
2023-09-11T20:44:45.378Z,25.57
2023-09-11T20:47:11.896Z,22.50
2023-09-11T20:49:39.233Z,24.00
2023-09-11T20:52:05.670Z,25.40
2023-09-11T20:54:31.969Z,22.70
2023-09-11T20:56:59.122Z,22.43
2023-09-11T20:59:25.537Z,28.00
2023-09-11T21:01:52.249Z,26.57
2023-09-11T21:04:19.488Z,27.40
2023-09-11T21:06:49.754Z,21.13
2023-09-11T21:09:17.372Z,24.37
2023-09-11T21:11:43.739Z,21.50
2023-09-11T21:14:10.242Z,24.00
2023-09-11T21:16:37.489Z,28.63
2023-09-11T21:19:04.563Z,26.77
2023-09-11T21:21:31.033Z,22.97
2023-09-11T21:23:57.365Z,19.90
2023-09-11T21:26:23.710Z,25.20
2023-09-11T21:28:51.928Z,23.17
2023-09-11T21:31:19.671Z,26.73
2023-09-11T21:33:46.109Z,21.27
2023-09-11T21:36:12.607Z,20.27
2023-09-11T21:38:39.547Z,19.97
2023-09-11T21:41:06.089Z,23.93
2023-09-11T21:43:32.287Z,18.50
2023-09-11T21:45:59.886Z,21.30
2023-09-11T21:48:26.647Z,23.67
2023-09-11T21:50:53.414Z,21.73
2023-09-11T21:53:19.919Z,26.10
2023-09-11T21:55:46.450Z,22.70
2023-09-11T21:58:12.834Z,26.50
2023-09-11T22:00:39.356Z,26.63
2023-09-11T22:03:06.063Z,27.93
2023-09-11T22:05:33.788Z,24.33
2023-09-11T22:08:02.042Z,18.50
2023-09-11T22:10:31.622Z,20.70
2023-09-11T22:12:58.416Z,24.47
2023-09-11T22:15:24.933Z,24.17
2023-09-11T22:17:51.422Z,19.60
2023-09-11T22:20:17.898Z,19.93
2023-09-11T22:22:44.310Z,22.97
2023-09-11T22:25:10.588Z,25.27
2023-09-11T22:27:36.968Z,25.10
2023-09-11T22:30:03.495Z,28.03
2023-09-11T22:32:41.148Z,21.40
2023-09-11T22:35:15.798Z,17.90
2023-09-11T22:37:42.207Z,23.40
2023-09-11T22:40:09.150Z,21.60
2023-09-11T22:42:35.643Z,22.43
2023-09-11T22:45:02.034Z,23.33
2023-09-11T22:47:28.608Z,22.47
2023-09-11T22:49:55.148Z,22.10
2023-09-11T22:52:21.964Z,20.50
2023-09-11T22:54:50.572Z,22.93
2023-09-11T22:57:17.046Z,39.13
2023-09-11T22:59:43.433Z,24.40
2023-09-11T23:02:09.812Z,23.37
2023-09-11T23:04:36.402Z,22.13
2023-09-11T23:07:02.900Z,23.43
2023-09-11T23:09:29.428Z,22.90
2023-09-11T23:11:55.840Z,18.53
2023-09-11T23:14:22.259Z,23.30
2023-09-11T23:16:48.877Z,20.17
2023-09-11T23:19:15.226Z,22.63
2023-09-11T23:21:41.620Z,20.73
2023-09-11T23:24:12.029Z,21.47
2023-09-11T23:26:39.008Z,21.80
2023-09-11T23:29:06.526Z,21.00
2023-09-11T23:31:33.204Z,20.83
2023-09-11T23:33:59.704Z,19.30
2023-09-11T23:36:26.154Z,22.00
2023-09-11T23:38:52.652Z,20.33
2023-09-11T23:41:19.091Z,23.03
2023-09-11T23:43:45.426Z,18.27
2023-09-11T23:46:11.883Z,18.67
2023-09-11T23:48:38.518Z,19.03
2023-09-11T23:51:05.079Z,20.63
2023-09-11T23:53:31.491Z,22.57
2023-09-11T23:55:58.077Z,23.13
2023-09-11T23:58:24.463Z,24.77
